PWSweather.com
Personal Weather Stations
Station Observations
AT335
PozzuoliIT 80078

PozzuoliIT 80078

Lat: 40.8299847, Lon: 14.1268428

Elevation: 70

Station Type: Davis Vantage Pro2

http://www.ik8sda.it/wx.htm

Latest ConditionsUpdated 12:50:01 PM GMT+01:01 Sunday, Mar 24, 2019
Currently Today's Max Today's Min Today's Average
Temperature 62.5°F16.9°C 64.4°F18.0°C 55.1°F12.8°C 60.5°F15.8°C
Dew Point 48.0°F8.9°C 50.4°F10.2°C 31.2°F-0.4°C 36.7°F2.6°C
Winds 2.3 mph SW3.7 kmh SW 10.4 mph -16.7 kmh - - 3.5 mph 5.6 kmh
Wind Gusts 8.1 mph13.0 kmh 17.3 mph27.8 kmh - -
Humidity 59% 65% 31% 42%
Pressure 30.21 in1023.0 mb 30.23 in1023.7 mb 30.11 in1019.6 mb -
Hour Temp Dew Point Humidity Winds Wind Gusts Pressure Precip Precip Rate Daily Precip Total
12:50 PM 62.5°F16.9°C 48.0°F8.9°C 59% 2.3 mph SW3.7 kmh SW 8.1 mph13.0 kmh 30.21 in1023.0 mb - 0.00 in0.0 mm 0.00 in0.0 mm
12:45 PM 62.3°F16.8°C 49.1°F9.5°C 62% 5.0 mph SW8.0 kmh SW 8.0 mph12.9 kmh 30.15 in1021.0 mb 0.00 in0.0 mm 0.00 in0.0 mm 0.00 in0.0 mm
12:44 PM 62.3°F16.8°C 49.1°F9.5°C 62% 7.0 mph SW11.3 kmh SW 8.0 mph12.9 kmh 30.15 in1021.0 mb 0.00 in0.0 mm 0.00 in0.0 mm 0.00 in0.0 mm
12:40 PM 62.3°F16.8°C 50.4°F10.2°C 65% 6.9 mph SW11.1 kmh SW 11.5 mph18.5 kmh 30.21 in1023.0 mb - 0.00 in0.0 mm 0.00 in0.0 mm
12:30 PM 61.3°F16.3°C 49.0°F9.4°C 64% 8.1 mph SW13.0 kmh SW 11.5 mph18.5 kmh 30.21 in1023.0 mb - 0.00 in0.0 mm 0.00 in0.0 mm
12:29 PM 61.3°F16.3°C 49.0°F9.4°C 64% 8.0 mph SW12.9 kmh SW 11.0 mph17.7 kmh 30.15 in1021.0 mb 0.00 in0.0 mm 0.00 in0.0 mm 0.00 in0.0 mm
12:20 PM 61.3°F16.3°C 49.0°F9.4°C 64% 6.9 mph SW11.1 kmh SW 9.2 mph14.8 kmh 30.21 in1023.0 mb - 0.00 in0.0 mm 0.00 in0.0 mm
12:15 PM 61.4°F16.3°C 49.1°F9.5°C 64% 7.0 mph SSW11.3 kmh SSW 8.0 mph12.9 kmh 30.15 in1021.0 mb 0.00 in0.0 mm 0.00 in0.0 mm 0.00 in0.0 mm
12:14 PM 61.7°F16.5°C 49.8°F9.9°C 65% 7.0 mph SSW11.3 kmh SSW 8.0 mph12.9 kmh 30.15 in1021.0 mb 0.00 in0.0 mm 0.00 in0.0 mm 0.00 in0.0 mm
12:10 PM 61.6°F16.4°C 49.3°F9.6°C 64% 5.8 mph S9.3 kmh S 9.2 mph14.8 kmh 30.21 in1023.0 mb - 0.00 in0.0 mm 0.00 in0.0 mm
12:00 PM 61.9°F16.6°C 47.9°F8.8°C 60% 4.6 mph S7.4 kmh S 8.1 mph13.0 kmh 30.22 in1023.4 mb - 0.00 in0.0 mm 0.00 in0.0 mm
11:59 AM 61.9°F16.6°C 47.9°F8.8°C 60% 4.0 mph S6.4 kmh S 8.0 mph12.9 kmh 30.16 in1021.3 mb 0.00 in0.0 mm 0.00 in0.0 mm 0.00 in0.0 mm
11:50 AM 61.7°F16.5°C 47.2°F8.4°C 59% 6.9 mph S11.1 kmh S 9.2 mph14.8 kmh 30.22 in1023.4 mb - 0.00 in0.0 mm 0.00 in0.0 mm
11:45 AM 61.9°F16.6°C 46.5°F8.1°C 57% 8.0 mph S12.9 kmh S 8.0 mph12.9 kmh 30.16 in1021.3 mb 0.00 in0.0 mm 0.00 in0.0 mm 0.00 in0.0 mm
11:43 AM 62.2°F16.8°C 46.3°F7.9°C 56% 7.0 mph S11.3 kmh S 8.0 mph12.9 kmh 30.16 in1021.3 mb 0.00 in0.0 mm 0.00 in0.0 mm 0.00 in0.0 mm
11:40 AM 62.3°F16.8°C 45.5°F7.5°C 54% 4.6 mph S7.4 kmh S 6.9 mph11.1 kmh 30.22 in1023.4 mb - 0.00 in0.0 mm 0.00 in0.0 mm
11:30 AM 62.3°F16.8°C 43.4°F6.3°C 50% 3.5 mph S5.6 kmh S 8.1 mph13.0 kmh 30.22 in1023.4 mb - 0.00 in0.0 mm 0.00 in0.0 mm
11:29 AM 62.3°F16.8°C 43.4°F6.3°C 50% 3.0 mph S4.8 kmh S 8.0 mph12.9 kmh 30.16 in1021.3 mb 0.00 in0.0 mm 0.00 in0.0 mm 0.00 in0.0 mm
11:20 AM 62.2°F16.8°C 41.1°F5.1°C 46% 5.8 mph S9.3 kmh S 8.1 mph13.0 kmh 30.22 in1023.4 mb - 0.00 in0.0 mm 0.00 in0.0 mm
11:15 AM 62.8°F17.1°C 42.3°F5.7°C 47% 4.0 mph S6.4 kmh S 5.0 mph8.0 kmh 30.16 in1021.3 mb 0.00 in0.0 mm 0.00 in0.0 mm 0.00 in0.0 mm
11:13 AM 62.6°F17.0°C 42.1°F5.6°C 47% 4.0 mph S6.4 kmh S 5.0 mph8.0 kmh 30.16 in1021.3 mb 0.00 in0.0 mm 0.00 in0.0 mm 0.00 in0.0 mm
11:10 AM 61.9°F16.6°C 40.9°F4.9°C 46% 2.3 mph S3.7 kmh S 9.2 mph14.8 kmh 30.22 in1023.4 mb - 0.00 in0.0 mm 0.00 in0.0 mm
11:00 AM 62.2°F16.8°C 40.6°F4.8°C 45% 5.8 mph SSE9.3 kmh SSE 8.1 mph13.0 kmh 30.22 in1023.4 mb - 0.00 in0.0 mm 0.00 in0.0 mm
10:59 AM 62.2°F16.8°C 40.6°F4.8°C 45% 6.0 mph SSE9.7 kmh SSE 8.0 mph12.9 kmh 30.16 in1021.3 mb 0.00 in0.0 mm 0.00 in0.0 mm 0.00 in0.0 mm
10:50 AM 62.3°F16.8°C 35.0°F1.7°C 36% 2.3 mph SE3.7 kmh SE 8.1 mph13.0 kmh 30.23 in1023.7 mb - 0.00 in0.0 mm 0.00 in0.0 mm
10:45 AM 62.4°F16.9°C 38.4°F3.6°C 41% 6.0 mph SE9.7 kmh SE 7.0 mph11.3 kmh 30.17 in1021.7 mb 0.00 in0.0 mm 0.00 in0.0 mm 0.00 in0.0 mm
10:44 AM 62.1°F16.7°C 38.8°F3.8°C 42% 4.0 mph SE6.4 kmh SE 7.0 mph11.3 kmh 30.16 in1021.3 mb 0.00 in0.0 mm 0.00 in0.0 mm 0.00 in0.0 mm
10:40 AM 61.8°F16.6°C 40.8°F4.9°C 46% 1.2 mph SE1.9 kmh SE 6.9 mph11.1 kmh 30.22 in1023.4 mb - 0.00 in0.0 mm 0.00 in0.0 mm
10:30 AM 62.2°F16.8°C 42.3°F5.7°C 48% 2.3 mph SE3.7 kmh SE 8.1 mph13.0 kmh 30.23 in1023.7 mb - 0.00 in0.0 mm 0.00 in0.0 mm
10:29 AM 62.3°F16.8°C 42.4°F5.8°C 48% 3.0 mph SE4.8 kmh SE 8.0 mph12.9 kmh 30.16 in1021.3 mb 0.00 in0.0 mm 0.00 in0.0 mm 0.00 in0.0 mm
10:20 AM 63.6°F17.6°C 42.4°F5.8°C 46% 5.8 mph SE9.3 kmh SE 10.4 mph16.7 kmh 30.23 in1023.7 mb - 0.00 in0.0 mm 0.00 in0.0 mm
10:15 AM 64.3°F17.9°C 41.4°F5.2°C 43% 4.0 mph ESE6.4 kmh ESE 7.0 mph11.3 kmh 30.17 in1021.7 mb 0.00 in0.0 mm 0.00 in0.0 mm 0.00 in0.0 mm
10:14 AM 64.2°F17.9°C 39.4°F4.1°C 40% 2.0 mph ESE3.2 kmh ESE 7.0 mph11.3 kmh 30.16 in1021.3 mb 0.00 in0.0 mm 0.00 in0.0 mm 0.00 in0.0 mm
10:10 AM 64.1°F17.8°C 32.9°F0.5°C 31% 3.5 mph E5.6 kmh E 8.1 mph13.0 kmh 30.23 in1023.7 mb - 0.00 in0.0 mm 0.00 in0.0 mm
10:00 AM 64.4°F18.0°C 35.4°F1.9°C 34% 2.3 mph ENE3.7 kmh ENE 4.6 mph7.4 kmh 30.22 in1023.4 mb - 0.00 in0.0 mm 0.00 in0.0 mm
09:58 AM 64.4°F18.0°C 35.5°F1.9°C 34% 5.0 mph ENE8.0 kmh ENE 5.0 mph8.0 kmh 30.16 in1021.3 mb 0.00 in0.0 mm 0.00 in0.0 mm 0.00 in0.0 mm
09:50 AM 64.0°F17.8°C 36.5°F2.5°C 36% 4.6 mph ENE7.4 kmh ENE 4.6 mph7.4 kmh 30.22 in1023.4 mb - 0.00 in0.0 mm 0.00 in0.0 mm
09:45 AM 63.8°F17.7°C 37.1°F2.8°C 37% 3.0 mph ENE4.8 kmh ENE 5.0 mph8.0 kmh 30.16 in1021.3 mb 0.00 in0.0 mm 0.00 in0.0 mm 0.00 in0.0 mm
09:43 AM 63.9°F17.7°C 36.5°F2.5°C 36% 2.0 mph ENE3.2 kmh ENE 4.0 mph6.4 kmh 30.16 in1021.3 mb 0.00 in0.0 mm 0.00 in0.0 mm 0.00 in0.0 mm
09:40 AM 63.8°F17.7°C 35.6°F2.0°C 35% 3.5 mph ENE5.6 kmh ENE 3.5 mph5.6 kmh 30.22 in1023.4 mb - 0.00 in0.0 mm 0.00 in0.0 mm
09:30 AM 62.3°F16.8°C 37.0°F2.8°C 39% 1.2 mph ENE1.9 kmh ENE 3.5 mph5.6 kmh 30.22 in1023.4 mb - 0.00 in0.0 mm 0.00 in0.0 mm
09:29 AM 62.3°F16.8°C 36.4°F2.4°C 38% 2.0 mph ENE3.2 kmh ENE 4.0 mph6.4 kmh 30.16 in1021.3 mb 0.00 in0.0 mm 0.00 in0.0 mm 0.00 in0.0 mm
09:20 AM 62.1°F16.7°C 37.5°F3.1°C 40% 2.3 mph ENE3.7 kmh ENE 3.5 mph5.6 kmh 30.22 in1023.4 mb - 0.00 in0.0 mm 0.00 in0.0 mm
09:15 AM 62.2°F16.8°C 37.0°F2.8°C 39% 1.0 mph ENE1.6 kmh ENE 4.0 mph6.4 kmh 30.16 in1021.3 mb 0.00 in0.0 mm 0.00 in0.0 mm 0.00 in0.0 mm
09:13 AM 62.1°F16.7°C 36.2°F2.3°C 38% 3.0 mph ENE4.8 kmh ENE 4.0 mph6.4 kmh 30.16 in1021.3 mb 0.00 in0.0 mm 0.00 in0.0 mm 0.00 in0.0 mm
09:10 AM 62.3°F16.8°C 36.4°F2.4°C 38% 3.5 mph ENE5.6 kmh ENE 3.5 mph5.6 kmh 30.22 in1023.4 mb - 0.00 in0.0 mm 0.00 in0.0 mm
09:00 AM 62.9°F17.2°C 36.9°F2.7°C 38% 2.3 mph ENE3.7 kmh ENE 3.5 mph5.6 kmh 30.22 in1023.4 mb - 0.00 in0.0 mm 0.00 in0.0 mm
08:58 AM 62.9°F17.2°C 36.9°F2.7°C 38% 3.0 mph ENE4.8 kmh ENE 4.0 mph6.4 kmh 30.16 in1021.3 mb 0.00 in0.0 mm 0.00 in0.0 mm 0.00 in0.0 mm
08:50 AM 62.6°F17.0°C 35.2°F1.8°C 36% Calm Calm -- 30.22 in1023.4 mb - 0.00 in0.0 mm 0.00 in0.0 mm
08:45 AM 62.1°F16.7°C 36.2°F2.3°C 38% Calm Calm -- 30.16 in1021.3 mb 0.00 in0.0 mm 0.00 in0.0 mm 0.00 in0.0 mm
08:44 AM 62.1°F16.7°C 36.9°F2.7°C 39% Calm Calm -- 30.16 in1021.3 mb 0.00 in0.0 mm 0.00 in0.0 mm 0.00 in0.0 mm
08:40 AM 61.9°F16.6°C 36.7°F2.6°C 39% Calm Calm 3.5 mph5.6 kmh 30.22 in1023.4 mb - 0.00 in0.0 mm 0.00 in0.0 mm
08:30 AM 63.1°F17.3°C 37.1°F2.8°C 38% 1.2 mph ENE1.9 kmh ENE 3.5 mph5.6 kmh 30.21 in1023.0 mb - 0.00 in0.0 mm 0.00 in0.0 mm
08:28 AM 63.1°F17.3°C 36.4°F2.4°C 37% 1.0 mph ENE1.6 kmh ENE 3.0 mph4.8 kmh 30.15 in1021.0 mb 0.00 in0.0 mm 0.00 in0.0 mm 0.00 in0.0 mm
08:20 AM 62.8°F17.1°C 37.5°F3.1°C 39% Calm Calm 1.2 mph1.9 kmh 30.21 in1023.0 mb - 0.00 in0.0 mm 0.00 in0.0 mm
08:15 AM 62.6°F17.0°C 37.3°F2.9°C 39% Calm Calm -- 30.15 in1021.0 mb 0.00 in0.0 mm 0.00 in0.0 mm 0.00 in0.0 mm
08:14 AM 62.4°F16.9°C 37.1°F2.8°C 39% Calm Calm -- 30.15 in1021.0 mb 0.00 in0.0 mm 0.00 in0.0 mm 0.00 in0.0 mm
08:10 AM 61.7°F16.5°C 36.5°F2.5°C 39% Calm Calm 2.3 mph3.7 kmh 30.21 in1023.0 mb - 0.00 in0.0 mm 0.00 in0.0 mm
08:00 AM 61.9°F16.6°C 36.0°F2.2°C 38% Calm Calm -- 30.20 in1022.7 mb - 0.00 in0.0 mm 0.00 in0.0 mm
07:59 AM 61.9°F16.6°C 36.0°F2.2°C 38% Calm Calm -- 30.14 in1020.7 mb 0.00 in0.0 mm 0.00 in0.0 mm 0.00 in0.0 mm
07:50 AM 62.0°F16.7°C 35.4°F1.9°C 37% Calm Calm -- 30.20 in1022.7 mb - 0.00 in0.0 mm 0.00 in0.0 mm
07:45 AM 62.5°F16.9°C 37.2°F2.9°C 39% Calm Calm -- 30.14 in1020.7 mb 0.00 in0.0 mm 0.00 in0.0 mm 0.00 in0.0 mm
07:44 AM 62.6°F17.0°C 37.3°F2.9°C 39% Calm Calm -- 30.14 in1020.7 mb 0.00 in0.0 mm 0.00 in0.0 mm 0.00 in0.0 mm
07:40 AM 61.9°F16.6°C 36.6°F2.6°C 39% Calm Calm -- 30.20 in1022.7 mb - 0.00 in0.0 mm 0.00 in0.0 mm
07:30 AM 60.8°F16.0°C 35.7°F2.1°C 39% Calm Calm -- 30.20 in1022.7 mb - 0.00 in0.0 mm 0.00 in0.0 mm
07:29 AM 60.8°F16.0°C 35.7°F2.1°C 39% Calm Calm -- 30.14 in1020.7 mb 0.00 in0.0 mm 0.00 in0.0 mm 0.00 in0.0 mm
07:20 AM 59.8°F15.4°C 34.8°F1.6°C 39% 1.2 mph ENE1.9 kmh ENE 2.3 mph3.7 kmh 30.19 in1022.4 mb - 0.00 in0.0 mm 0.00 in0.0 mm
07:15 AM 60.0°F15.6°C 34.3°F1.3°C 38% 2.0 mph ENE3.2 kmh ENE 2.0 mph3.2 kmh 30.13 in1020.3 mb 0.00 in0.0 mm 0.00 in0.0 mm 0.00 in0.0 mm
07:14 AM 60.1°F15.6°C 34.4°F1.3°C 38% 1.0 mph ENE1.6 kmh ENE 2.0 mph3.2 kmh 30.13 in1020.3 mb 0.00 in0.0 mm 0.00 in0.0 mm 0.00 in0.0 mm
07:10 AM 59.3°F15.2°C 33.7°F0.9°C 38% Calm Calm -- 30.19 in1022.4 mb - 0.00 in0.0 mm 0.00 in0.0 mm
07:00 AM 58.2°F14.6°C 34.6°F1.4°C 41% Calm Calm -- 30.19 in1022.4 mb - 0.00 in0.0 mm 0.00 in0.0 mm
06:59 AM 58.3°F14.6°C 34.7°F1.5°C 41% Calm Calm -- 30.13 in1020.3 mb 0.00 in0.0 mm 0.00 in0.0 mm 0.00 in0.0 mm
06:50 AM 57.2°F14.0°C 34.9°F1.6°C 43% Calm Calm 3.5 mph5.6 kmh 30.19 in1022.4 mb - 0.00 in0.0 mm 0.00 in0.0 mm
06:45 AM 57.1°F13.9°C 34.3°F1.3°C 42% Calm Calm 3.0 mph4.8 kmh 30.13 in1020.3 mb 0.00 in0.0 mm 0.00 in0.0 mm 0.00 in0.0 mm
06:44 AM 57.0°F13.9°C 34.2°F1.2°C 42% 1.0 mph ENE1.6 kmh ENE 3.0 mph4.8 kmh 30.13 in1020.3 mb 0.00 in0.0 mm 0.00 in0.0 mm 0.00 in0.0 mm
06:40 AM 57.3°F14.1°C 33.8°F1.0°C 41% 2.3 mph ENE3.7 kmh ENE 3.5 mph5.6 kmh 30.18 in1022.0 mb - 0.00 in0.0 mm 0.00 in0.0 mm
06:30 AM 55.8°F13.2°C 33.0°F0.6°C 42% 3.5 mph ENE5.6 kmh ENE 8.1 mph13.0 kmh 30.18 in1022.0 mb - 0.00 in0.0 mm 0.00 in0.0 mm
06:29 AM 55.8°F13.2°C 33.1°F0.6°C 42% 3.0 mph ENE4.8 kmh ENE 8.0 mph12.9 kmh 30.12 in1020.0 mb 0.00 in0.0 mm 0.00 in0.0 mm 0.00 in0.0 mm
06:20 AM 55.1°F12.8°C 33.0°F0.6°C 43% 3.5 mph ENE5.6 kmh ENE 3.5 mph5.6 kmh 30.18 in1022.0 mb - 0.00 in0.0 mm 0.00 in0.0 mm
06:15 AM 55.6°F13.1°C 32.9°F0.5°C 42% 2.0 mph ENE3.2 kmh ENE 3.0 mph4.8 kmh 30.12 in1020.0 mb 0.00 in0.0 mm 0.00 in0.0 mm 0.00 in0.0 mm
06:14 AM 55.9°F13.3°C 32.6°F0.3°C 41% 2.0 mph ENE3.2 kmh ENE 3.0 mph4.8 kmh 30.12 in1020.0 mb 0.00 in0.0 mm 0.00 in0.0 mm 0.00 in0.0 mm
06:10 AM 56.4°F13.6°C 33.0°F0.6°C 41% 3.5 mph ENE5.6 kmh ENE 9.2 mph14.8 kmh 30.18 in1022.0 mb - 0.00 in0.0 mm 0.00 in0.0 mm
06:00 AM 57.2°F14.0°C 32.4°F0.2°C 39% 2.3 mph ENE3.7 kmh ENE 3.5 mph5.6 kmh 30.18 in1022.0 mb - 0.00 in0.0 mm 0.00 in0.0 mm
05:59 AM 57.2°F14.0°C 32.5°F0.3°C 39% 1.0 mph ENE1.6 kmh ENE 2.0 mph3.2 kmh 30.11 in1019.6 mb 0.00 in0.0 mm 0.00 in0.0 mm 0.00 in0.0 mm
05:50 AM 57.3°F14.1°C 32.5°F0.3°C 39% Calm Calm -- 30.17 in1021.7 mb - 0.00 in0.0 mm 0.00 in0.0 mm
05:45 AM 57.6°F14.2°C 32.9°F0.5°C 39% Calm Calm -- 30.11 in1019.6 mb 0.00 in0.0 mm 0.00 in0.0 mm 0.00 in0.0 mm
05:43 AM 57.8°F14.3°C 33.0°F0.6°C 39% Calm Calm -- 30.11 in1019.6 mb 0.00 in0.0 mm 0.00 in0.0 mm 0.00 in0.0 mm
05:40 AM 58.1°F14.5°C 32.6°F0.3°C 38% Calm Calm 2.3 mph3.7 kmh 30.17 in1021.7 mb - 0.00 in0.0 mm 0.00 in0.0 mm
05:30 AM 58.0°F14.4°C 33.2°F0.7°C 39% 2.3 mph ENE3.7 kmh ENE 3.5 mph5.6 kmh 30.17 in1021.7 mb - 0.00 in0.0 mm 0.00 in0.0 mm
05:28 AM 58.0°F14.4°C 33.2°F0.7°C 39% 2.0 mph ENE3.2 kmh ENE 4.0 mph6.4 kmh 30.11 in1019.6 mb 0.00 in0.0 mm 0.00 in0.0 mm 0.00 in0.0 mm
05:20 AM 57.4°F14.1°C 33.3°F0.7°C 40% 3.5 mph ENE5.6 kmh ENE 4.6 mph7.4 kmh 30.17 in1021.7 mb - 0.00 in0.0 mm 0.00 in0.0 mm
05:15 AM 57.5°F14.2°C 33.4°F0.8°C 40% 2.0 mph ENE3.2 kmh ENE 5.0 mph8.0 kmh 30.11 in1019.6 mb 0.00 in0.0 mm 0.00 in0.0 mm 0.00 in0.0 mm
05:14 AM 57.6°F14.2°C 33.5°F0.8°C 40% 4.0 mph ENE6.4 kmh ENE 5.0 mph8.0 kmh 30.11 in1019.6 mb 0.00 in0.0 mm 0.00 in0.0 mm 0.00 in0.0 mm
05:10 AM 57.6°F14.2°C 33.4°F0.8°C 40% 5.8 mph ENE9.3 kmh ENE 10.4 mph16.7 kmh 30.17 in1021.7 mb - 0.00 in0.0 mm 0.00 in0.0 mm
05:00 AM 56.8°F13.8°C 33.4°F0.8°C 41% 6.9 mph ENE11.1 kmh ENE 9.2 mph14.8 kmh 30.17 in1021.7 mb - 0.00 in0.0 mm 0.00 in0.0 mm
04:59 AM 56.9°F13.8°C 33.5°F0.8°C 41% 8.0 mph ENE12.9 kmh ENE 9.0 mph14.5 kmh 30.11 in1019.6 mb 0.00 in0.0 mm 0.00 in0.0 mm 0.00 in0.0 mm
04:50 AM 56.8°F13.8°C 33.3°F0.7°C 41% 5.8 mph ENE9.3 kmh ENE 9.2 mph14.8 kmh 30.17 in1021.7 mb - 0.00 in0.0 mm 0.00 in0.0 mm
04:45 AM 57.0°F13.9°C 32.9°F0.5°C 40% 5.0 mph ENE8.0 kmh ENE 8.0 mph12.9 kmh 30.11 in1019.6 mb 0.00 in0.0 mm 0.00 in0.0 mm 0.00 in0.0 mm
04:44 AM 57.2°F14.0°C 33.1°F0.6°C 40% 4.0 mph ENE6.4 kmh ENE 8.0 mph12.9 kmh 30.11 in1019.6 mb 0.00 in0.0 mm 0.00 in0.0 mm 0.00 in0.0 mm
04:40 AM 57.8°F14.3°C 33.0°F0.6°C 39% 4.6 mph ENE7.4 kmh ENE 10.4 mph16.7 kmh 30.18 in1022.0 mb - 0.00 in0.0 mm 0.00 in0.0 mm
04:30 AM 56.3°F13.5°C 33.5°F0.8°C 42% 3.5 mph ENE5.6 kmh ENE 4.6 mph7.4 kmh 30.18 in1022.0 mb - 0.00 in0.0 mm 0.00 in0.0 mm
04:29 AM 56.3°F13.5°C 32.9°F0.5°C 41% 4.0 mph ENE6.4 kmh ENE 4.0 mph6.4 kmh 30.11 in1019.6 mb 0.00 in0.0 mm 0.00 in0.0 mm 0.00 in0.0 mm
04:20 AM 57.9°F14.4°C 32.4°F0.2°C 38% 2.3 mph ENE3.7 kmh ENE 3.5 mph5.6 kmh 30.17 in1021.7 mb - 0.00 in0.0 mm 0.00 in0.0 mm
04:15 AM 58.4°F14.7°C 32.3°F0.2°C 37% Calm Calm 1.0 mph1.6 kmh 30.11 in1019.6 mb 0.00 in0.0 mm 0.00 in0.0 mm 0.00 in0.0 mm
04:14 AM 58.5°F14.7°C 33.0°F0.6°C 38% Calm Calm 1.0 mph1.6 kmh 30.12 in1020.0 mb 0.00 in0.0 mm 0.00 in0.0 mm 0.00 in0.0 mm
04:10 AM 58.5°F14.7°C 32.3°F0.2°C 37% 2.3 mph ENE3.7 kmh ENE 3.5 mph5.6 kmh 30.17 in1021.7 mb - 0.00 in0.0 mm 0.00 in0.0 mm
04:00 AM 59.2°F15.1°C 32.2°F0.1°C 36% 2.3 mph ENE3.7 kmh ENE 4.6 mph7.4 kmh 30.17 in1021.7 mb - 0.00 in0.0 mm 0.00 in0.0 mm
03:59 AM 59.2°F15.1°C 32.3°F0.2°C 36% 2.0 mph ENE3.2 kmh ENE 5.0 mph8.0 kmh 30.11 in1019.6 mb 0.00 in0.0 mm 0.00 in0.0 mm 0.00 in0.0 mm
03:50 AM 60.1°F15.6°C 32.4°F0.2°C 35% 3.5 mph ENE5.6 kmh ENE 6.9 mph11.1 kmh 30.17 in1021.7 mb - 0.00 in0.0 mm 0.00 in0.0 mm
03:45 AM 60.3°F15.7°C 32.6°F0.3°C 35% 5.0 mph ENE8.0 kmh ENE 7.0 mph11.3 kmh 30.11 in1019.6 mb 0.00 in0.0 mm 0.00 in0.0 mm 0.00 in0.0 mm
03:44 AM 60.2°F15.7°C 32.5°F0.3°C 35% 5.0 mph ENE8.0 kmh ENE 7.0 mph11.3 kmh 30.11 in1019.6 mb 0.00 in0.0 mm 0.00 in0.0 mm 0.00 in0.0 mm
03:40 AM 60.4°F15.8°C 32.6°F0.3°C 35% 6.9 mph ENE11.1 kmh ENE 8.1 mph13.0 kmh 30.17 in1021.7 mb - 0.00 in0.0 mm 0.00 in0.0 mm
03:30 AM 61.2°F16.2°C 32.6°F0.3°C 34% 6.9 mph ENE11.1 kmh ENE 9.2 mph14.8 kmh 30.17 in1021.7 mb - 0.00 in0.0 mm 0.00 in0.0 mm
03:29 AM 61.2°F16.2°C 32.6°F0.3°C 34% 7.0 mph ENE11.3 kmh ENE 9.0 mph14.5 kmh 30.11 in1019.6 mb 0.00 in0.0 mm 0.00 in0.0 mm 0.00 in0.0 mm
03:20 AM 62.3°F16.8°C 31.2°F-0.4°C 31% 4.6 mph ENE7.4 kmh ENE 6.9 mph11.1 kmh 30.17 in1021.7 mb - 0.00 in0.0 mm 0.00 in0.0 mm
03:15 AM 62.4°F16.9°C 32.2°F0.1°C 32% 5.0 mph ENE8.0 kmh ENE 7.0 mph11.3 kmh 30.11 in1019.6 mb 0.00 in0.0 mm 0.00 in0.0 mm 0.00 in0.0 mm
03:14 AM 62.6°F17.0°C 31.6°F-0.2°C 31% 3.0 mph ENE4.8 kmh ENE 4.0 mph6.4 kmh 30.11 in1019.6 mb 0.00 in0.0 mm 0.00 in0.0 mm 0.00 in0.0 mm
03:10 AM 62.9°F17.2°C 31.7°F-0.2°C 31% 8.1 mph ENE13.0 kmh ENE 11.5 mph18.5 kmh 30.17 in1021.7 mb - 0.00 in0.0 mm 0.00 in0.0 mm
03:00 AM 61.9°F16.6°C 32.5°F0.3°C 33% 10.4 mph E16.7 kmh E 15.0 mph24.1 kmh 30.17 in1021.7 mb - 0.00 in0.0 mm 0.00 in0.0 mm
02:58 AM 61.9°F16.6°C 32.5°F0.3°C 33% 9.0 mph E14.5 kmh E 15.0 mph24.1 kmh 30.11 in1019.6 mb 0.00 in0.0 mm 0.00 in0.0 mm 0.00 in0.0 mm
02:50 AM 61.8°F16.6°C 32.4°F0.2°C 33% 6.9 mph ENE11.1 kmh ENE 12.7 mph20.4 kmh 30.18 in1022.0 mb - 0.00 in0.0 mm 0.00 in0.0 mm
02:45 AM 61.1°F16.2°C 32.5°F0.3°C 34% 7.0 mph NE11.3 kmh NE 8.0 mph12.9 kmh 30.12 in1020.0 mb 0.00 in0.0 mm 0.00 in0.0 mm 0.00 in0.0 mm
02:44 AM 61.3°F16.3°C 32.7°F0.4°C 34% 5.0 mph NE8.0 kmh NE 7.0 mph11.3 kmh 30.12 in1020.0 mb 0.00 in0.0 mm 0.00 in0.0 mm 0.00 in0.0 mm
02:40 AM 62.0°F16.7°C 32.5°F0.3°C 33% 5.8 mph NE9.3 kmh NE 10.4 mph16.7 kmh 30.18 in1022.0 mb - 0.00 in0.0 mm 0.00 in0.0 mm
02:30 AM 62.4°F16.9°C 32.9°F0.5°C 33% 8.1 mph ENE13.0 kmh ENE 15.0 mph24.1 kmh 30.18 in1022.0 mb - 0.00 in0.0 mm 0.00 in0.0 mm
02:28 AM 62.4°F16.9°C 32.9°F0.5°C 33% 4.0 mph ENE6.4 kmh ENE 15.0 mph24.1 kmh 30.12 in1020.0 mb 0.00 in0.0 mm 0.00 in0.0 mm 0.00 in0.0 mm
02:20 AM 60.0°F15.6°C 34.3°F1.3°C 38% 8.1 mph NE13.0 kmh NE 12.7 mph20.4 kmh 30.18 in1022.0 mb - 0.00 in0.0 mm 0.00 in0.0 mm
02:15 AM 60.2°F15.7°C 34.5°F1.4°C 38% 7.0 mph ENE11.3 kmh ENE 10.0 mph16.1 kmh 30.12 in1020.0 mb 0.00 in0.0 mm 0.00 in0.0 mm 0.00 in0.0 mm
02:14 AM 60.3°F15.7°C 34.6°F1.4°C 38% 5.0 mph ENE8.0 kmh ENE 10.0 mph16.1 kmh 30.12 in1020.0 mb 0.00 in0.0 mm 0.00 in0.0 mm 0.00 in0.0 mm
02:10 AM 60.5°F15.8°C 34.1°F1.2°C 37% 3.5 mph ENE5.6 kmh ENE 11.5 mph18.5 kmh 30.18 in1022.0 mb - 0.00 in0.0 mm 0.00 in0.0 mm
02:00 AM 62.4°F16.9°C 34.4°F1.3°C 35% 10.4 mph NE16.7 kmh NE 17.3 mph27.8 kmh 30.18 in1022.0 mb - 0.00 in0.0 mm 0.00 in0.0 mm
01:59 AM 62.1°F16.7°C 34.2°F1.2°C 35% 10.0 mph NE16.1 kmh NE 17.0 mph27.4 kmh 30.12 in1020.0 mb 0.00 in0.0 mm 0.00 in0.0 mm 0.00 in0.0 mm
01:50 AM 59.8°F15.4°C 35.4°F1.9°C 40% 9.2 mph ENE14.8 kmh ENE 11.5 mph18.5 kmh 30.18 in1022.0 mb - 0.00 in0.0 mm 0.00 in0.0 mm
01:45 AM 59.0°F15.0°C 35.4°F1.9°C 41% 7.0 mph ENE11.3 kmh ENE 10.0 mph16.1 kmh 30.13 in1020.3 mb 0.00 in0.0 mm 0.00 in0.0 mm 0.00 in0.0 mm
01:43 AM 58.8°F14.9°C 35.2°F1.8°C 41% 5.0 mph ENE8.0 kmh ENE 5.0 mph8.0 kmh 30.13 in1020.3 mb 0.00 in0.0 mm 0.00 in0.0 mm 0.00 in0.0 mm
01:40 AM 58.8°F14.9°C 35.7°F2.1°C 42% 3.5 mph ENE5.6 kmh ENE 9.2 mph14.8 kmh 30.18 in1022.0 mb - 0.00 in0.0 mm 0.00 in0.0 mm
01:30 AM 57.8°F14.3°C 36.0°F2.2°C 44% 6.9 mph ENE11.1 kmh ENE 9.2 mph14.8 kmh 30.18 in1022.0 mb - 0.00 in0.0 mm 0.00 in0.0 mm
01:29 AM 57.8°F14.3°C 36.1°F2.3°C 44% 5.0 mph ENE8.0 kmh ENE 9.0 mph14.5 kmh 30.12 in1020.0 mb 0.00 in0.0 mm 0.00 in0.0 mm 0.00 in0.0 mm
01:20 AM 57.6°F14.2°C 36.4°F2.4°C 45% 5.8 mph ENE9.3 kmh ENE 9.2 mph14.8 kmh 30.19 in1022.4 mb - 0.00 in0.0 mm 0.00 in0.0 mm
01:15 AM 57.8°F14.3°C 36.6°F2.6°C 45% 7.0 mph ENE11.3 kmh ENE 8.0 mph12.9 kmh 30.13 in1020.3 mb 0.00 in0.0 mm 0.00 in0.0 mm 0.00 in0.0 mm
01:14 AM 57.9°F14.4°C 36.7°F2.6°C 45% 4.0 mph ENE6.4 kmh ENE 7.0 mph11.3 kmh 30.13 in1020.3 mb 0.00 in0.0 mm 0.00 in0.0 mm 0.00 in0.0 mm
01:10 AM 58.1°F14.5°C 36.3°F2.4°C 44% 3.5 mph ENE5.6 kmh ENE 6.9 mph11.1 kmh 30.19 in1022.4 mb - 0.00 in0.0 mm 0.00 in0.0 mm
01:00 AM 59.0°F15.0°C 36.0°F2.2°C 42% 6.9 mph E11.1 kmh E 8.1 mph13.0 kmh 30.19 in1022.4 mb - 0.00 in0.0 mm 0.00 in0.0 mm
12:59 AM 59.1°F15.1°C 36.1°F2.3°C 42% 7.0 mph E11.3 kmh E 8.0 mph12.9 kmh 30.13 in1020.3 mb 0.00 in0.0 mm 0.00 in0.0 mm 0.00 in0.0 mm
12:50 AM 60.3°F15.7°C 35.8°F2.1°C 40% 4.6 mph E7.4 kmh E 8.1 mph13.0 kmh 30.18 in1022.0 mb - 0.00 in0.0 mm 0.00 in0.0 mm
12:45 AM 60.3°F15.7°C 36.5°F2.5°C 41% 2.0 mph E3.2 kmh E 3.0 mph4.8 kmh 30.13 in1020.3 mb 0.00 in0.0 mm 0.00 in0.0 mm 0.00 in0.0 mm
12:43 AM 60.4°F15.8°C 36.0°F2.2°C 40% 2.0 mph E3.2 kmh E 3.0 mph4.8 kmh 30.13 in1020.3 mb 0.00 in0.0 mm 0.00 in0.0 mm 0.00 in0.0 mm
12:40 AM 60.5°F15.8°C 35.4°F1.9°C 39% 3.5 mph E5.6 kmh E 6.9 mph11.1 kmh 30.19 in1022.4 mb - 0.00 in0.0 mm 0.00 in0.0 mm
12:30 AM 59.7°F15.4°C 36.0°F2.2°C 41% 1.2 mph E1.9 kmh E 3.5 mph5.6 kmh 30.19 in1022.4 mb - 0.00 in0.0 mm 0.00 in0.0 mm
12:28 AM 59.7°F15.4°C 36.0°F2.2°C 41% Calm Calm 3.0 mph4.8 kmh 30.13 in1020.3 mb 0.00 in0.0 mm 0.00 in0.0 mm 0.00 in0.0 mm
12:20 AM 59.5°F15.3°C 37.0°F2.8°C 43% Calm Calm 3.5 mph5.6 kmh 30.19 in1022.4 mb - 0.00 in0.0 mm 0.00 in0.0 mm
12:15 AM 59.3°F15.2°C 36.8°F2.7°C 43% Calm Calm 3.0 mph4.8 kmh 30.13 in1020.3 mb 0.00 in0.0 mm 0.00 in0.0 mm 0.00 in0.0 mm
12:13 AM 59.2°F15.1°C 36.7°F2.6°C 43% Calm Calm 3.0 mph4.8 kmh 30.13 in1020.3 mb 0.00 in0.0 mm 0.00 in0.0 mm 0.00 in0.0 mm
12:10 AM 59.0°F15.0°C 36.5°F2.5°C 43% Calm Calm 2.3 mph3.7 kmh 30.19 in1022.4 mb - 0.00 in0.0 mm 0.00 in0.0 mm
12:00 AM 60.2°F15.7°C 37.0°F2.8°C 42% Calm Calm -- 30.19 in1022.4 mb - 0.00 in0.0 mm 0.00 in0.0 mm